createdAt,value
2019-03-25T00:00:55.454Z,12.50
2019-03-25T00:01:56.452Z,12.50
2019-03-25T00:02:57.556Z,12.40
2019-03-25T00:03:58.593Z,12.40
2019-03-25T00:04:59.607Z,12.40
2019-03-25T00:06:00.612Z,12.40
2019-03-25T00:07:01.620Z,12.40
2019-03-25T00:08:02.746Z,12.40
2019-03-25T00:09:05.758Z,12.40
2019-03-25T00:10:07.091Z,12.40
2019-03-25T00:11:08.105Z,12.40
2019-03-25T00:12:09.124Z,12.50
2019-03-25T00:13:10.132Z,12.50
2019-03-25T00:14:11.148Z,12.40
2019-03-25T00:15:12.253Z,12.30
2019-03-25T00:16:13.278Z,12.30
2019-03-25T00:17:14.287Z,12.30
2019-03-25T00:18:15.287Z,12.30
2019-03-25T00:19:16.313Z,12.30
2019-03-25T00:20:17.329Z,12.40
2019-03-25T00:21:18.336Z,12.40
2019-03-25T00:22:19.350Z,12.40
2019-03-25T00:23:20.365Z,12.40
2019-03-25T00:24:21.381Z,12.40
2019-03-25T00:25:22.390Z,12.50
2019-03-25T00:26:23.393Z,12.40
2019-03-25T00:27:24.395Z,12.40
2019-03-25T00:28:25.407Z,12.40
2019-03-25T00:29:26.425Z,12.40
2019-03-25T00:30:27.434Z,12.30
2019-03-25T00:31:28.439Z,12.30
2019-03-25T00:32:29.472Z,12.30
2019-03-25T00:33:30.484Z,12.20
2019-03-25T00:34:31.591Z,12.20
2019-03-25T00:35:32.692Z,12.20
2019-03-25T00:36:33.692Z,12.20
2019-03-25T00:37:34.717Z,12.10
2019-03-25T00:38:35.726Z,12.10
2019-03-25T00:39:36.745Z,12.10
2019-03-25T00:40:37.747Z,12.10
2019-03-25T00:41:38.761Z,12.10
2019-03-25T00:42:39.759Z,12.10
2019-03-25T00:43:40.773Z,12.10
2019-03-25T00:44:41.793Z,12.10
2019-03-25T00:45:42.800Z,12.10
2019-03-25T00:46:43.826Z,12.10
2019-03-25T00:47:44.833Z,12.10
2019-03-25T00:48:45.844Z,12.10
2019-03-25T00:49:46.905Z,12.10
2019-03-25T00:50:48.061Z,12.10
2019-03-25T00:51:49.073Z,12.10
2019-03-25T00:52:50.323Z,12.10
2019-03-25T00:53:51.329Z,12.10
2019-03-25T00:54:52.340Z,12.00
2019-03-25T00:55:53.353Z,12.00
2019-03-25T00:56:54.385Z,12.00
2019-03-25T00:57:55.771Z,12.00
2019-03-25T00:58:56.784Z,12.00
2019-03-25T00:59:57.846Z,12.00
2019-03-25T01:00:58.917Z,12.00
2019-03-25T01:01:59.918Z,12.00
2019-03-25T01:03:01.157Z,11.90
2019-03-25T01:04:02.469Z,11.90
2019-03-25T01:05:03.788Z,11.90
2019-03-25T01:06:04.829Z,11.90
2019-03-25T01:07:05.906Z,11.90
2019-03-25T01:08:06.910Z,11.90
2019-03-25T01:09:08.235Z,11.90
2019-03-25T01:10:09.952Z,11.90
2019-03-25T01:11:11.219Z,11.90
2019-03-25T01:12:12.232Z,11.90
2019-03-25T01:13:13.240Z,11.90
2019-03-25T01:14:14.240Z,11.90
2019-03-25T01:15:15.285Z,11.90
2019-03-25T01:16:16.287Z,11.80
2019-03-25T01:17:17.296Z,11.80
2019-03-25T01:18:18.306Z,11.80
2019-03-25T01:19:19.312Z,11.80
2019-03-25T01:20:20.389Z,11.80
2019-03-25T01:21:21.531Z,11.80
2019-03-25T01:22:22.551Z,11.80
2019-03-25T01:23:23.548Z,11.80
2019-03-25T01:24:24.552Z,11.80
2019-03-25T01:25:25.563Z,11.80
2019-03-25T01:26:26.578Z,11.80
2019-03-25T01:27:27.584Z,11.80
2019-03-25T01:28:28.579Z,11.80
2019-03-25T01:29:29.601Z,11.80
2019-03-25T01:30:30.836Z,11.80
2019-03-25T01:31:31.940Z,11.80
2019-03-25T01:32:32.944Z,11.80
2019-03-25T01:33:33.950Z,11.80
2019-03-25T01:34:34.949Z,11.80
2019-03-25T01:35:37.183Z,11.80
2019-03-25T01:36:38.193Z,11.80
2019-03-25T01:37:39.244Z,11.80
2019-03-25T01:38:40.323Z,11.70
2019-03-25T01:39:41.427Z,11.70
2019-03-25T01:40:42.440Z,11.70
2019-03-25T01:41:43.472Z,11.70
2019-03-25T01:42:44.485Z,11.70
2019-03-25T01:43:45.493Z,11.70
2019-03-25T01:44:46.768Z,11.70
2019-03-25T01:45:47.787Z,11.70
2019-03-25T01:46:48.789Z,11.70
2019-03-25T01:47:49.795Z,11.70
2019-03-25T01:48:50.802Z,11.60
2019-03-25T01:49:51.804Z,11.60
2019-03-25T01:50:52.832Z,11.60
2019-03-25T01:51:53.900Z,11.60
2019-03-25T01:52:54.973Z,11.60
2019-03-25T01:53:55.974Z,11.60
2019-03-25T01:54:56.984Z,11.60
2019-03-25T01:55:57.999Z,11.60
2019-03-25T01:56:59.007Z,11.60
2019-03-25T01:58:00.007Z,11.60
2019-03-25T01:59:01.021Z,11.60
2019-03-25T02:00:04.353Z,11.60
2019-03-25T02:01:05.370Z,11.50
2019-03-25T02:02:06.375Z,11.50
2019-03-25T02:03:07.384Z,11.50
2019-03-25T02:04:08.391Z,11.50
2019-03-25T02:05:09.433Z,11.50
2019-03-25T02:06:10.518Z,11.50
2019-03-25T02:07:11.516Z,11.40
2019-03-25T02:08:12.823Z,11.50
2019-03-25T02:09:13.862Z,11.40
2019-03-25T02:10:15.164Z,11.40
2019-03-25T02:11:16.376Z,11.40
2019-03-25T02:12:17.404Z,11.40
2019-03-25T02:13:18.413Z,11.40
2019-03-25T02:14:19.416Z,11.40
2019-03-25T02:15:20.440Z,11.40
2019-03-25T02:16:21.456Z,11.40
2019-03-25T02:17:22.456Z,11.40
2019-03-25T02:18:23.467Z,11.40
2019-03-25T02:19:24.475Z,11.40
2019-03-25T02:20:26.657Z,11.40
2019-03-25T02:21:28.098Z,11.40
2019-03-25T02:22:29.147Z,11.40
2019-03-25T02:23:30.224Z,11.30
2019-03-25T02:24:31.235Z,11.30
2019-03-25T02:25:32.233Z,11.30
2019-03-25T02:26:33.240Z,11.30
2019-03-25T02:27:34.248Z,11.30
2019-03-25T02:28:35.263Z,11.30
2019-03-25T02:29:36.272Z,11.30
2019-03-25T02:30:37.274Z,11.30
2019-03-25T02:31:38.299Z,11.30
2019-03-25T02:32:39.318Z,11.30
2019-03-25T02:33:40.321Z,11.30
2019-03-25T02:34:41.320Z,11.30
2019-03-25T02:35:42.333Z,11.30
2019-03-25T02:36:43.340Z,11.30
2019-03-25T02:37:44.390Z,11.30
2019-03-25T02:38:45.408Z,11.30
2019-03-25T02:39:46.437Z,11.30
2019-03-25T02:40:47.448Z,11.30
2019-03-25T02:41:48.468Z,11.30
2019-03-25T02:42:49.469Z,11.30
2019-03-25T02:43:50.489Z,11.20
2019-03-25T02:44:51.492Z,11.20
2019-03-25T02:45:52.514Z,11.20
2019-03-25T02:46:53.509Z,11.20
2019-03-25T02:47:54.517Z,11.20
2019-03-25T02:48:55.524Z,11.20
2019-03-25T02:49:56.544Z,11.30
2019-03-25T02:50:57.557Z,11.30
2019-03-25T02:51:58.566Z,11.20
2019-03-25T02:52:59.562Z,11.30
2019-03-25T02:54:00.565Z,11.30
2019-03-25T02:55:01.772Z,11.20
2019-03-25T02:56:02.810Z,11.20
2019-03-25T02:57:03.901Z,11.10
2019-03-25T02:58:05.048Z,11.10
2019-03-25T02:59:06.040Z,11.10
2019-03-25T03:00:08.443Z,11.10
2019-03-25T03:01:09.701Z,11.10
2019-03-25T03:02:10.816Z,11.10
2019-03-25T03:03:11.834Z,11.00
2019-03-25T03:04:12.839Z,11.00
2019-03-25T03:05:14.059Z,11.00
2019-03-25T03:06:15.170Z,10.90
2019-03-25T03:07:16.406Z,10.90
2019-03-25T03:08:17.405Z,10.90
2019-03-25T03:09:18.400Z,10.80
2019-03-25T03:10:19.650Z,10.80
2019-03-25T03:11:20.668Z,10.70
2019-03-25T03:12:21.675Z,10.70
2019-03-25T03:13:22.679Z,10.70
2019-03-25T03:14:23.690Z,10.60
2019-03-25T03:15:24.701Z,10.60
2019-03-25T03:16:25.722Z,10.60
2019-03-25T03:17:26.733Z,10.60
2019-03-25T03:18:27.846Z,10.60
2019-03-25T03:19:28.842Z,10.60
2019-03-25T03:20:29.844Z,10.70
2019-03-25T03:21:31.097Z,10.70
2019-03-25T03:22:32.105Z,10.70
2019-03-25T03:23:33.109Z,10.70
2019-03-25T03:24:34.108Z,10.70
2019-03-25T03:25:35.137Z,10.70
2019-03-25T03:26:36.167Z,10.70
2019-03-25T03:27:37.168Z,10.70
2019-03-25T03:28:38.169Z,10.70
2019-03-25T03:29:39.182Z,10.70
2019-03-25T03:30:40.195Z,10.70
2019-03-25T03:31:41.220Z,10.80
2019-03-25T03:32:42.252Z,10.70
2019-03-25T03:33:43.333Z,10.70
2019-03-25T03:34:44.456Z,10.70
2019-03-25T03:35:46.609Z,10.60
2019-03-25T03:36:48.135Z,10.60
2019-03-25T03:37:49.143Z,10.60
2019-03-25T03:38:50.156Z,10.50
2019-03-25T03:39:51.172Z,10.50
2019-03-25T03:40:52.188Z,10.50
2019-03-25T03:41:53.401Z,10.40
2019-03-25T03:42:54.414Z,10.40
2019-03-25T03:43:55.413Z,10.30
2019-03-25T03:44:56.424Z,10.30
2019-03-25T03:45:57.441Z,10.30
2019-03-25T03:46:58.452Z,10.30
2019-03-25T03:47:59.462Z,10.30
2019-03-25T03:49:00.475Z,10.20
2019-03-25T03:50:03.871Z,10.20
2019-03-25T03:51:04.889Z,10.20
2019-03-25T03:52:05.969Z,10.20
2019-03-25T03:53:07.073Z,10.20
2019-03-25T03:54:08.176Z,10.10
2019-03-25T03:55:09.458Z,10.10
2019-03-25T03:56:13.759Z,10.20
2019-03-25T03:57:13.999Z,10.10
2019-03-25T03:58:15.009Z,10.10
2019-03-25T03:59:16.522Z,10.10
2019-03-25T04:00:28.738Z,10.10
2019-03-25T04:01:29.829Z,10.10
2019-03-25T04:02:30.835Z,10.10
2019-03-25T04:03:31.867Z,10.10
2019-03-25T04:04:33.018Z,10.10
2019-03-25T04:05:34.056Z,10.10
2019-03-25T04:06:35.080Z,10.00
2019-03-25T04:07:36.083Z,10.00
2019-03-25T04:08:37.087Z,9.90
2019-03-25T04:09:38.193Z,9.90
2019-03-25T04:10:39.301Z,9.90
2019-03-25T04:11:40.318Z,9.90
2019-03-25T04:12:41.420Z,9.90
2019-03-25T04:13:42.432Z,9.90
2019-03-25T04:14:43.555Z,9.90
2019-03-25T04:15:44.664Z,9.90
2019-03-25T04:16:45.675Z,9.80
2019-03-25T04:17:46.679Z,9.80
2019-03-25T04:18:47.685Z,9.70
2019-03-25T04:19:48.693Z,9.70
2019-03-25T04:20:49.705Z,9.70
2019-03-25T04:21:50.725Z,9.70
2019-03-25T04:22:51.734Z,9.70
2019-03-25T04:23:53.136Z,9.70
2019-03-25T04:24:54.154Z,9.70
2019-03-25T04:25:55.161Z,9.70
2019-03-25T04:26:56.172Z,9.70
2019-03-25T04:27:57.177Z,9.70
2019-03-25T04:28:58.175Z,9.70
2019-03-25T04:29:59.192Z,9.70
2019-03-25T04:31:00.214Z,9.70
2019-03-25T04:32:01.232Z,9.70
2019-03-25T04:33:02.242Z,9.70
2019-03-25T04:34:03.264Z,9.70
2019-03-25T04:35:04.365Z,9.70
2019-03-25T04:36:05.364Z,9.70
2019-03-25T04:37:06.390Z,9.70
2019-03-25T04:38:07.384Z,9.70
2019-03-25T04:39:08.506Z,9.60
2019-03-25T04:40:09.702Z,9.60
2019-03-25T04:41:10.700Z,9.60
2019-03-25T04:42:11.720Z,9.60
2019-03-25T04:43:12.992Z,9.60
2019-03-25T04:44:13.996Z,9.60
2019-03-25T04:45:15.011Z,9.60
2019-03-25T04:46:16.016Z,9.60
2019-03-25T04:47:17.028Z,9.60
2019-03-25T04:48:18.040Z,9.60
2019-03-25T04:49:19.048Z,9.60
2019-03-25T04:50:20.044Z,9.60
2019-03-25T04:51:21.054Z,9.60
2019-03-25T04:52:22.073Z,9.60
2019-03-25T04:53:23.080Z,9.60
2019-03-25T04:54:24.182Z,9.60
2019-03-25T04:55:25.176Z,9.50
2019-03-25T04:56:26.188Z,9.40
2019-03-25T04:57:27.193Z,9.50
2019-03-25T04:58:28.208Z,9.50
2019-03-25T04:59:29.531Z,9.50
2019-03-25T05:00:32.653Z,9.50
2019-03-25T05:01:33.957Z,9.50
2019-03-25T05:02:35.059Z,9.50
2019-03-25T05:03:36.063Z,9.50
2019-03-25T05:04:37.059Z,9.50
2019-03-25T05:05:38.067Z,9.50
2019-03-25T05:06:39.070Z,9.50
2019-03-25T05:07:40.088Z,9.50
2019-03-25T05:08:41.084Z,9.50
2019-03-25T05:09:42.100Z,9.40
2019-03-25T05:10:43.108Z,9.40
2019-03-25T05:11:44.112Z,9.30
2019-03-25T05:12:45.127Z,9.30
2019-03-25T05:13:46.132Z,9.30
2019-03-25T05:14:47.149Z,9.30
2019-03-25T05:15:48.498Z,9.30
2019-03-25T05:16:49.513Z,9.30
2019-03-25T05:17:50.532Z,9.20
2019-03-25T05:18:51.608Z,9.20
2019-03-25T05:19:52.643Z,9.30
2019-03-25T05:20:53.645Z,9.30
2019-03-25T05:21:54.647Z,9.30
2019-03-25T05:22:55.706Z,9.30
2019-03-25T05:23:56.789Z,9.30
2019-03-25T05:24:57.789Z,9.30
2019-03-25T05:25:58.807Z,9.40
2019-03-25T05:26:59.806Z,9.40
2019-03-25T05:28:01.047Z,9.40
2019-03-25T05:29:02.051Z,9.40
2019-03-25T05:30:05.676Z,9.40
2019-03-25T05:31:07.011Z,9.50
2019-03-25T05:32:08.022Z,9.40
2019-03-25T05:33:09.073Z,9.40
2019-03-25T05:34:10.255Z,9.40
2019-03-25T05:35:11.256Z,9.40
2019-03-25T05:36:12.321Z,9.50
2019-03-25T05:37:13.337Z,9.40
2019-03-25T05:38:14.347Z,9.40
2019-03-25T05:39:15.353Z,9.30
2019-03-25T05:40:16.361Z,9.20
2019-03-25T05:41:17.371Z,9.20
2019-03-25T05:42:18.391Z,9.20
2019-03-25T05:43:21.176Z,9.20
2019-03-25T05:44:22.317Z,9.20
2019-03-25T05:45:23.329Z,9.10
2019-03-25T05:46:24.338Z,9.10
2019-03-25T05:47:25.356Z,9.10
2019-03-25T05:48:26.451Z,9.00
2019-03-25T05:49:27.459Z,9.00
2019-03-25T05:50:28.459Z,8.90
2019-03-25T05:51:29.490Z,8.90
2019-03-25T05:52:30.515Z,8.90
2019-03-25T05:53:31.543Z,9.00
2019-03-25T05:54:32.553Z,9.00
2019-03-25T05:55:33.576Z,8.90
2019-03-25T05:56:34.592Z,8.90
2019-03-25T05:57:36.050Z,8.90
2019-03-25T05:58:37.067Z,8.90
2019-03-25T05:59:38.076Z,8.90
2019-03-25T06:00:39.079Z,8.90
2019-03-25T06:01:40.088Z,8.90
2019-03-25T06:02:41.100Z,8.90
2019-03-25T06:03:42.605Z,8.80
2019-03-25T06:04:43.611Z,8.80
2019-03-25T06:05:44.615Z,8.70
2019-03-25T06:06:45.619Z,8.80
2019-03-25T06:07:46.632Z,8.80
2019-03-25T06:08:47.631Z,8.70
2019-03-25T06:09:48.636Z,8.80
2019-03-25T06:10:49.639Z,8.70
2019-03-25T06:11:50.665Z,8.70
2019-03-25T06:12:53.621Z,8.70
2019-03-25T06:13:54.649Z,8.70
2019-03-25T06:14:55.640Z,8.70
2019-03-25T06:15:56.663Z,8.70
2019-03-25T06:16:57.668Z,8.70
2019-03-25T06:17:58.929Z,8.70
2019-03-25T06:18:59.927Z,8.70
2019-03-25T06:20:01.116Z,8.70
2019-03-25T06:21:02.202Z,8.70
2019-03-25T06:22:03.204Z,8.70
2019-03-25T06:23:04.219Z,8.70
2019-03-25T06:24:05.232Z,8.80
2019-03-25T06:25:06.744Z,8.70
2019-03-25T06:26:07.752Z,8.70
2019-03-25T06:27:14.104Z,8.70
2019-03-25T06:28:11.751Z,8.80
2019-03-25T06:29:12.754Z,8.70
2019-03-25T06:30:14.256Z,8.70
2019-03-25T06:31:15.263Z,8.70
2019-03-25T06:32:16.270Z,8.70
2019-03-25T06:33:17.288Z,8.70
2019-03-25T06:34:18.300Z,8.70
2019-03-25T06:35:19.324Z,8.80
2019-03-25T06:36:20.326Z,8.80
2019-03-25T06:37:21.336Z,8.90
2019-03-25T06:38:22.364Z,8.90
2019-03-25T06:39:23.371Z,9.00
2019-03-25T06:40:24.387Z,9.00
2019-03-25T06:41:25.437Z,9.00
2019-03-25T06:42:26.460Z,9.10
2019-03-25T06:43:27.492Z,9.10
2019-03-25T06:44:28.513Z,9.10
2019-03-25T06:45:29.533Z,9.10
2019-03-25T06:46:30.548Z,9.10
2019-03-25T06:47:31.572Z,9.10
2019-03-25T06:48:32.601Z,9.10
2019-03-25T06:49:33.607Z,9.10
2019-03-25T06:50:34.613Z,9.10
2019-03-25T06:51:35.642Z,9.10
2019-03-25T06:52:36.707Z,9.10
2019-03-25T06:53:38.024Z,9.00
2019-03-25T06:54:39.025Z,8.90
2019-03-25T06:55:40.032Z,8.90
2019-03-25T06:56:41.054Z,8.90
2019-03-25T06:57:42.056Z,8.90
2019-03-25T06:58:43.074Z,8.90
2019-03-25T06:59:44.171Z,9.00
2019-03-25T07:00:45.176Z,9.00
2019-03-25T07:01:46.179Z,9.00
2019-03-25T07:02:47.188Z,9.00
2019-03-25T07:03:48.243Z,9.10
2019-03-25T07:04:49.251Z,9.20
2019-03-25T07:05:50.256Z,9.20
2019-03-25T07:06:51.268Z,9.20
2019-03-25T07:07:52.275Z,9.20
2019-03-25T07:08:53.290Z,9.20
2019-03-25T07:09:54.288Z,9.20
2019-03-25T07:10:55.384Z,9.20
2019-03-25T07:11:56.489Z,9.20
2019-03-25T07:12:58.604Z,9.30
2019-03-25T07:13:59.625Z,9.30
2019-03-25T07:15:00.619Z,9.30
2019-03-25T07:16:01.649Z,9.40
2019-03-25T07:17:02.649Z,9.40
2019-03-25T07:18:04.063Z,9.40
2019-03-25T07:19:05.220Z,9.40
2019-03-25T07:20:06.923Z,9.40
2019-03-25T07:21:07.924Z,9.40
2019-03-25T07:22:08.929Z,9.40
2019-03-25T07:23:09.932Z,9.40
2019-03-25T07:24:10.963Z,9.40
2019-03-25T07:25:12.071Z,9.40
2019-03-25T07:26:13.075Z,9.40
2019-03-25T07:27:14.079Z,9.40
2019-03-25T07:28:15.199Z,9.40
2019-03-25T07:29:16.603Z,9.40
2019-03-25T07:30:17.611Z,9.40
2019-03-25T07:31:18.620Z,9.40
2019-03-25T07:32:19.628Z,9.40
2019-03-25T07:33:20.645Z,9.40
2019-03-25T07:34:21.688Z,9.40
2019-03-25T07:35:22.692Z,9.30
2019-03-25T07:36:23.695Z,9.30
2019-03-25T07:37:24.718Z,9.30
2019-03-25T07:38:25.716Z,9.20
2019-03-25T07:39:26.738Z,9.20
2019-03-25T07:40:27.744Z,9.20
2019-03-25T07:41:28.759Z,9.20
2019-03-25T07:42:29.792Z,9.30
2019-03-25T07:43:30.795Z,9.30
2019-03-25T07:44:31.816Z,9.30
2019-03-25T07:45:32.819Z,9.40
2019-03-25T07:46:33.841Z,9.40
2019-03-25T07:47:34.841Z,9.40
2019-03-25T07:48:35.839Z,9.40
2019-03-25T07:49:36.881Z,9.50
2019-03-25T07:50:37.884Z,9.50
2019-03-25T07:51:38.913Z,9.40
2019-03-25T07:52:39.916Z,9.50
2019-03-25T07:53:41.036Z,9.50
2019-03-25T07:54:42.102Z,9.50
2019-03-25T07:55:43.084Z,9.50
2019-03-25T07:56:44.103Z,9.50
2019-03-25T07:57:48.528Z,9.60
2019-03-25T07:58:48.107Z,9.60
2019-03-25T07:59:49.124Z,9.70
2019-03-25T08:00:50.188Z,9.70
2019-03-25T08:01:51.322Z,9.80
2019-03-25T08:02:52.492Z,9.80
2019-03-25T08:03:53.550Z,9.80
2019-03-25T08:04:54.646Z,9.70
2019-03-25T08:05:55.643Z,9.80
2019-03-25T08:06:56.646Z,9.80
2019-03-25T08:07:57.660Z,9.80
2019-03-25T08:09:03.805Z,9.70
2019-03-25T08:10:02.290Z,9.70
2019-03-25T08:11:03.297Z,9.80
2019-03-25T08:12:04.321Z,9.80
2019-03-25T08:13:05.484Z,9.80
2019-03-25T08:14:06.516Z,9.80
2019-03-25T08:15:07.854Z,9.80
2019-03-25T08:16:08.956Z,9.90
2019-03-25T08:17:10.003Z,9.90
2019-03-25T08:18:11.006Z,9.90
2019-03-25T08:19:12.031Z,9.90
2019-03-25T08:20:13.552Z,10.00
2019-03-25T08:21:14.556Z,10.10
2019-03-25T08:22:15.560Z,10.10
2019-03-25T08:23:16.559Z,10.10
2019-03-25T08:24:17.569Z,10.10
2019-03-25T08:25:18.613Z,10.00
2019-03-25T08:26:19.768Z,10.00
2019-03-25T08:27:20.833Z,10.00
2019-03-25T08:28:21.935Z,10.00
2019-03-25T08:29:23.031Z,10.00
2019-03-25T08:30:24.231Z,10.00
2019-03-25T08:31:25.273Z,10.10
2019-03-25T08:32:26.280Z,10.00
2019-03-25T08:33:27.334Z,10.00
2019-03-25T08:34:28.719Z,10.20
2019-03-25T08:35:29.744Z,10.20
2019-03-25T08:36:30.759Z,10.20
2019-03-25T08:37:31.769Z,10.20
2019-03-25T08:38:33.004Z,10.10
2019-03-25T08:39:34.007Z,10.10
2019-03-25T08:40:35.027Z,10.10
2019-03-25T08:41:36.041Z,10.10
2019-03-25T08:42:37.043Z,10.10
2019-03-25T08:43:38.050Z,10.10
2019-03-25T08:44:39.072Z,10.10
2019-03-25T08:45:40.080Z,10.10
2019-03-25T08:46:41.315Z,10.00
2019-03-25T08:47:42.322Z,10.00
2019-03-25T08:48:43.333Z,10.00
2019-03-25T08:49:44.389Z,9.90
2019-03-25T08:50:45.448Z,10.00
2019-03-25T08:51:46.448Z,10.00
2019-03-25T08:52:47.484Z,10.00
2019-03-25T08:53:48.492Z,10.00
2019-03-25T08:54:49.528Z,10.00
2019-03-25T08:55:50.629Z,10.00
2019-03-25T08:56:51.633Z,10.00
2019-03-25T08:57:52.636Z,10.10
2019-03-25T08:58:53.643Z,10.10
2019-03-25T08:59:57.491Z,10.20
2019-03-25T09:00:57.585Z,10.10
2019-03-25T09:01:58.634Z,10.10
2019-03-25T09:02:59.647Z,10.10
2019-03-25T09:04:00.665Z,10.10
2019-03-25T09:05:01.865Z,10.10
2019-03-25T09:06:02.876Z,10.10
2019-03-25T09:07:03.876Z,10.10
2019-03-25T09:08:04.880Z,10.10
2019-03-25T09:09:07.596Z,10.10
2019-03-25T09:10:09.099Z,10.10
2019-03-25T09:11:10.112Z,10.20
2019-03-25T09:12:11.131Z,10.20
2019-03-25T09:13:12.154Z,10.20
2019-03-25T09:14:13.149Z,10.30
2019-03-25T09:15:14.582Z,10.40
2019-03-25T09:16:15.604Z,10.40
2019-03-25T09:17:16.612Z,10.40
2019-03-25T09:18:17.715Z,10.50
2019-03-25T09:19:18.840Z,10.50
2019-03-25T09:20:19.857Z,10.60
2019-03-25T09:21:20.860Z,10.50
2019-03-25T09:22:21.864Z,10.50
2019-03-25T09:23:22.867Z,10.50
2019-03-25T09:24:23.980Z,10.40
2019-03-25T09:25:24.981Z,10.30
2019-03-25T09:26:26.092Z,10.20
2019-03-25T09:27:27.091Z,10.10
2019-03-25T09:28:28.095Z,10.10
2019-03-25T09:29:29.134Z,10.10
2019-03-25T09:30:50.640Z,10.10
2019-03-25T09:31:51.748Z,10.00
2019-03-25T09:32:52.764Z,10.10
2019-03-25T09:33:54.091Z,10.10
2019-03-25T09:34:55.096Z,10.00
2019-03-25T09:35:56.246Z,10.00
2019-03-25T09:36:57.341Z,10.10
2019-03-25T09:37:58.346Z,10.10
2019-03-25T09:38:59.358Z,10.10
2019-03-25T09:40:00.402Z,10.20
2019-03-25T09:41:01.412Z,10.20
2019-03-25T09:42:02.716Z,10.30
2019-03-25T09:43:03.721Z,10.40
2019-03-25T09:44:04.741Z,10.40
2019-03-25T09:45:07.245Z,10.50
2019-03-25T09:46:08.253Z,10.50
2019-03-25T09:47:09.587Z,10.50
2019-03-25T09:48:10.595Z,10.60
2019-03-25T09:49:11.632Z,10.60
2019-03-25T09:50:13.336Z,10.70
2019-03-25T09:51:14.460Z,10.70
2019-03-25T09:52:15.716Z,10.60
2019-03-25T09:53:16.729Z,10.60
2019-03-25T09:54:17.735Z,10.50
2019-03-25T09:55:18.736Z,10.40
2019-03-25T09:56:19.799Z,10.40
2019-03-25T09:57:20.803Z,10.40
2019-03-25T09:58:21.806Z,10.40
2019-03-25T09:59:22.854Z,10.40
2019-03-25T10:00:30.895Z,10.40
2019-03-25T10:01:31.916Z,10.40
2019-03-25T10:02:32.918Z,10.40
2019-03-25T10:03:33.923Z,10.40
2019-03-25T10:04:34.924Z,10.40
2019-03-25T10:05:36.033Z,10.50
2019-03-25T10:06:37.048Z,10.40
2019-03-25T10:07:38.062Z,10.40
2019-03-25T10:08:39.076Z,10.40
2019-03-25T10:09:40.067Z,10.30
2019-03-25T10:10:41.077Z,10.30
2019-03-25T10:11:42.363Z,10.30
2019-03-25T10:12:43.373Z,10.30
2019-03-25T10:13:44.380Z,10.20
2019-03-25T10:14:45.394Z,10.20
2019-03-25T10:15:46.399Z,10.20
2019-03-25T10:16:47.421Z,10.20
2019-03-25T10:17:49.035Z,10.30
2019-03-25T10:18:50.056Z,10.30
2019-03-25T10:19:51.061Z,10.40
2019-03-25T10:20:52.079Z,10.40
2019-03-25T10:21:53.114Z,10.40
2019-03-25T10:22:54.123Z,10.40
2019-03-25T10:23:55.277Z,10.30
2019-03-25T10:24:56.484Z,10.40
2019-03-25T10:25:57.488Z,10.40
2019-03-25T10:26:58.508Z,10.40
2019-03-25T10:27:59.517Z,10.40
2019-03-25T10:29:00.536Z,10.40
2019-03-25T10:30:02.393Z,10.40
2019-03-25T10:31:03.592Z,10.40
2019-03-25T10:32:04.704Z,10.40
2019-03-25T10:33:05.707Z,10.60
2019-03-25T10:34:06.734Z,10.60
2019-03-25T10:35:08.032Z,10.50
2019-03-25T10:36:09.045Z,10.50
2019-03-25T10:37:10.155Z,10.50
2019-03-25T10:38:19.559Z,10.50
2019-03-25T10:39:14.312Z,10.50
2019-03-25T10:40:15.525Z,10.50
2019-03-25T10:41:16.532Z,10.50
2019-03-25T10:42:17.553Z,10.50
2019-03-25T10:43:18.559Z,10.50
2019-03-25T10:44:19.566Z,10.50
2019-03-25T10:45:20.579Z,10.40
2019-03-25T10:46:21.584Z,10.40
2019-03-25T10:47:22.614Z,10.40
2019-03-25T10:48:23.627Z,10.50
2019-03-25T10:49:24.633Z,10.50
2019-03-25T10:50:25.639Z,10.60
2019-03-25T10:51:26.653Z,10.60
2019-03-25T10:52:27.668Z,10.70
2019-03-25T10:53:28.682Z,10.70
2019-03-25T10:54:29.743Z,10.70
2019-03-25T10:55:31.071Z,10.60
2019-03-25T10:56:32.078Z,10.60
2019-03-25T10:57:33.094Z,10.60
2019-03-25T10:58:34.096Z,10.70
2019-03-25T10:59:35.107Z,10.80
2019-03-25T11:00:36.119Z,10.70
2019-03-25T11:01:37.151Z,10.70
2019-03-25T11:02:38.240Z,10.80
2019-03-25T11:03:39.328Z,10.90
2019-03-25T11:04:40.345Z,10.90
2019-03-25T11:05:41.361Z,11.00
2019-03-25T11:06:42.453Z,11.00
2019-03-25T11:07:43.535Z,11.00
2019-03-25T11:08:44.587Z,11.00
2019-03-25T11:09:45.713Z,11.00
2019-03-25T11:10:46.751Z,11.00
2019-03-25T11:11:47.748Z,11.00
2019-03-25T11:12:48.763Z,11.10
2019-03-25T11:13:49.768Z,11.20
2019-03-25T11:14:50.787Z,11.10
2019-03-25T11:15:51.817Z,11.10
2019-03-25T11:16:52.845Z,11.10
2019-03-25T11:17:53.879Z,11.10
2019-03-25T11:18:54.884Z,11.00
2019-03-25T11:19:55.908Z,11.00
2019-03-25T11:20:57.003Z,11.00
2019-03-25T11:21:58.013Z,11.10
2019-03-25T11:22:59.035Z,11.10
2019-03-25T11:24:00.351Z,11.20
2019-03-25T11:25:01.695Z,11.20
2019-03-25T11:26:02.697Z,11.20
2019-03-25T11:27:03.959Z,11.20
2019-03-25T11:28:04.997Z,11.20
2019-03-25T11:29:08.525Z,11.20
2019-03-25T11:30:10.834Z,11.20
2019-03-25T11:31:11.863Z,11.00
2019-03-25T11:32:12.909Z,10.90
2019-03-25T11:33:13.937Z,10.70
2019-03-25T11:34:14.968Z,10.60
2019-03-25T11:35:15.959Z,10.50
2019-03-25T11:36:16.963Z,10.40
2019-03-25T11:37:17.968Z,10.40
2019-03-25T11:38:18.984Z,10.30
2019-03-25T11:39:20.056Z,10.40
2019-03-25T11:40:21.094Z,10.40
2019-03-25T11:41:22.113Z,10.50
2019-03-25T11:42:23.116Z,10.60
2019-03-25T11:43:24.184Z,10.60
2019-03-25T11:44:25.171Z,10.70
2019-03-25T11:45:26.175Z,10.80
2019-03-25T11:46:27.436Z,10.90
2019-03-25T11:47:28.439Z,10.80
2019-03-25T11:48:29.479Z,10.90
2019-03-25T11:49:30.497Z,10.90
2019-03-25T11:50:31.504Z,10.80
2019-03-25T11:51:32.516Z,10.90
2019-03-25T11:52:33.550Z,10.90
2019-03-25T11:53:34.670Z,10.90
2019-03-25T11:54:35.683Z,10.80
2019-03-25T11:55:36.693Z,10.80
2019-03-25T11:56:37.704Z,10.80
2019-03-25T11:57:38.721Z,10.90
2019-03-25T11:58:39.723Z,10.90
2019-03-25T11:59:40.728Z,10.90
2019-03-25T12:00:42.957Z,10.90
2019-03-25T12:01:44.075Z,11.00
2019-03-25T12:02:45.361Z,11.00
2019-03-25T12:03:46.369Z,11.10
2019-03-25T12:04:47.368Z,11.10
2019-03-25T12:05:48.375Z,11.10
2019-03-25T12:06:49.611Z,11.20
2019-03-25T12:07:50.655Z,11.20
2019-03-25T12:08:51.660Z,11.30
2019-03-25T12:09:52.659Z,11.40
2019-03-25T12:10:53.771Z,11.50
2019-03-25T12:11:55.043Z,11.50
2019-03-25T12:12:56.168Z,11.60
2019-03-25T12:13:57.175Z,11.70
2019-03-25T12:14:58.187Z,11.70
2019-03-25T12:15:59.233Z,11.60
2019-03-25T12:17:00.249Z,11.60
2019-03-25T12:18:01.273Z,11.60
2019-03-25T12:19:02.821Z,11.70
2019-03-25T12:20:07.143Z,11.80
2019-03-25T12:21:08.146Z,11.80
2019-03-25T12:22:09.158Z,11.70
2019-03-25T12:23:10.180Z,11.60
2019-03-25T12:24:11.216Z,11.40
2019-03-25T12:25:12.336Z,11.30
2019-03-25T12:26:13.340Z,11.20
2019-03-25T12:27:14.421Z,11.20
2019-03-25T12:28:15.505Z,10.90
2019-03-25T12:29:16.525Z,10.60
2019-03-25T12:30:17.635Z,10.40
2019-03-25T12:31:18.648Z,10.30
2019-03-25T12:32:19.654Z,10.30
2019-03-25T12:33:20.903Z,10.20
2019-03-25T12:34:21.977Z,10.20
2019-03-25T12:35:23.216Z,10.20
2019-03-25T12:36:24.233Z,10.30
2019-03-25T12:37:25.269Z,10.30
2019-03-25T12:38:26.296Z,10.20
2019-03-25T12:39:27.306Z,10.20
2019-03-25T12:40:28.307Z,10.20
2019-03-25T12:41:29.344Z,10.20
2019-03-25T12:42:30.339Z,10.30
2019-03-25T12:43:31.347Z,10.30
2019-03-25T12:44:32.352Z,10.40
2019-03-25T12:45:33.358Z,10.40
2019-03-25T12:46:34.365Z,10.50
2019-03-25T12:47:35.380Z,10.40
2019-03-25T12:48:36.599Z,10.40
2019-03-25T12:49:37.603Z,10.50
2019-03-25T12:50:38.645Z,10.50
2019-03-25T12:51:40.052Z,10.50
2019-03-25T12:52:41.067Z,10.50
2019-03-25T12:53:42.087Z,10.50
2019-03-25T12:54:43.085Z,10.50
2019-03-25T12:55:44.087Z,10.40
2019-03-25T12:56:45.088Z,10.40
2019-03-25T12:57:46.114Z,10.10
2019-03-25T12:58:47.124Z,9.70
2019-03-25T12:59:48.504Z,9.40
2019-03-25T13:00:49.518Z,9.10
2019-03-25T13:01:53.101Z,9.00
2019-03-25T13:02:53.463Z,8.70
2019-03-25T13:03:54.474Z,8.60
2019-03-25T13:04:55.475Z,8.50
2019-03-25T13:05:56.494Z,8.40
2019-03-25T13:06:57.518Z,8.30
2019-03-25T13:07:58.621Z,8.20
2019-03-25T13:09:00.254Z,8.20
2019-03-25T13:10:01.714Z,8.20
2019-03-25T13:11:02.751Z,8.20
2019-03-25T13:12:03.759Z,8.20
2019-03-25T13:13:04.876Z,8.20
2019-03-25T13:14:06.207Z,8.30
2019-03-25T13:15:07.738Z,8.40
2019-03-25T13:16:08.813Z,8.50
2019-03-25T13:17:09.819Z,8.70